TimeCST,TemperatureF,Dew PointF,Humidity,Sea Level PressureIn,VisibilityMPH,Wind Direction,Wind SpeedMPH,Gust SpeedMPH,PrecipitationIn,Events,Conditions,WindDirDegrees,DateUTC
12:11 AM,1.4,-0.4,92,30.41,10.0,Calm,Calm,-,N/A,,Mostly Cloudy,0,2013-11-29 06:11:00
12:53 AM,8.1,5.0,87,30.52,10.0,Calm,Calm,-,N/A,,Overcast,0,2013-11-29 06:53:00
1:53 AM,10.9,8.1,88,30.53,10.0,Calm,Calm,-,N/A,,Overcast,0,2013-11-29 07:53:00
2:53 AM,12.9,10.9,92,30.53,10.0,Calm,Calm,-,N/A,,Overcast,0,2013-11-29 08:53:00
3:49 AM,15.8,12.2,86,30.44,8.0,WNW,3.5,-,N/A,,Overcast,290,2013-11-29 09:49:00
3:53 AM,15.1,12.9,91,30.54,9.0,WNW,3.5,-,N/A,,Overcast,290,2013-11-29 09:53:00
4:53 AM,15.1,12.9,91,30.56,9.0,Calm,Calm,-,N/A,,Overcast,0,2013-11-29 10:53:00
5:53 AM,15.1,12.9,91,30.58,10.0,Calm,Calm,-,N/A,,Overcast,0,2013-11-29 11:53:00
6:53 AM,14.0,12.9,95,30.59,5.0,Calm,Calm,-,N/A,,Overcast,0,2013-11-29 12:53:00
7:19 AM,14.0,12.2,93,30.48,1.5,Calm,Calm,-,N/A,,Overcast,0,2013-11-29 13:19:00
7:53 AM,14.0,12.0,92,30.60,1.5,Calm,Calm,-,N/A,,Overcast,0,2013-11-29 13:53:00
8:12 AM,14.0,12.2,93,30.49,3.0,Calm,Calm,-,N/A,,Overcast,0,2013-11-29 14:12:00
8:23 AM,14.0,12.2,93,30.49,1.8,Calm,Calm,-,N/A,,Overcast,0,2013-11-29 14:23:00
8:33 AM,14.0,12.2,93,30.50,3.0,Calm,Calm,-,N/A,,Overcast,0,2013-11-29 14:33:00
8:53 AM,15.1,12.9,91,30.62,9.0,Calm,Calm,-,N/A,,Overcast,0,2013-11-29 14:53:00
9:17 AM,15.8,12.2,86,30.51,10.0,Calm,Calm,-,N/A,,Overcast,0,2013-11-29 15:17:00
9:53 AM,15.1,14.0,95,30.61,10.0,Calm,Calm,-,N/A,,Mostly Cloudy,0,2013-11-29 15:53:00
10:13 AM,15.8,14.0,93,30.49,10.0,Calm,Calm,-,N/A,,Overcast,0,2013-11-29 16:13:00
10:53 AM,18.0,16.0,92,30.61,10.0,Calm,Calm,-,N/A,,Scattered Clouds,0,2013-11-29 16:53:00
11:38 AM,19.4,15.8,86,30.47,10.0,South,5.8,-,N/A,,Mostly Cloudy,180,2013-11-29 17:38:00
11:53 AM,19.0,15.1,85,30.58,10.0,SSW,4.6,-,N/A,,Mostly Cloudy,200,2013-11-29 17:53:00
12:53 PM,19.9,12.9,74,30.55,10.0,SSW,9.2,-,N/A,,Clear,200,2013-11-29 18:53:00
1:53 PM,19.9,12.0,71,30.52,10.0,South,6.9,-,N/A,,Mostly Cloudy,170,2013-11-29 19:53:00
2:53 PM,21.0,12.9,71,30.49,10.0,South,9.2,-,N/A,,Overcast,190,2013-11-29 20:53:00
3:53 PM,21.0,12.9,71,30.47,10.0,South,8.1,-,N/A,,Overcast,180,2013-11-29 21:53:00
4:53 PM,21.0,12.9,71,30.46,10.0,SSE,4.6,-,N/A,,Clear,160,2013-11-29 22:53:00
5:53 PM,19.9,12.9,74,30.43,10.0,SSE,6.9,-,N/A,,Clear,150,2013-11-29 23:53:00
6:53 PM,19.9,14.0,78,30.40,10.0,South,9.2,-,N/A,,Clear,170,2013-11-30 00:53:00
7:53 PM,19.9,14.0,78,30.38,10.0,South,12.7,18.4,N/A,,Mostly Cloudy,170,2013-11-30 01:53:00
8:53 PM,21.0,15.1,78,30.35,10.0,South,13.8,20.7,N/A,,Overcast,170,2013-11-30 02:53:00
9:53 PM,21.9,15.1,75,30.34,10.0,South,11.5,20.7,N/A,,Overcast,180,2013-11-30 03:53:00
10:53 PM,23.0,15.1,72,30.32,10.0,South,9.2,-,N/A,,Overcast,180,2013-11-30 04:53:00
11:53 PM,23.0,15.1,72,30.30,10.0,SSW,10.4,-,N/A,,Overcast,200,2013-11-30 05:53:00